Aérodrome :
LOGIN :

S'inscrire | Disclaimer

   EN    FR    IT 

 










Légende :    VFR   VFR Marginal   IFR   IFR Intensif   IFR Très Intensif
Visi : 
Plafond : 
>= 8 km
>= 3000ft
5 à 8 km
1000 à 3000 ft
1500m à 5 km
500 à 1000 ft
800 à 1500m
200 à 500 ft
< 800m
< 200 ft
Symboles :   Orages  Brouillard  Fortes neiges  Fortes précipitations  Vent > 20 kt
SIGMETs :   Divers  Orages  Givrage  Turbulence  Onde Orograph.  Cendres Volcan.






- Altitude de l'aérodrome : 3245 ft
- Code IATA : TID


DAOB - Bou Chekif - Tiaret

DERNIER METAR :
  • 120100Z 28014KT 9999 BKN026 06/05 Q1011

METARs EXPIRÉS :
  • 120000Z 27014KT 9999 BKN026 06/06 Q1012
  • 112300Z 26013KT 9999 BKN026 SCT216 06/05 Q1012

TAF TAF DAOB
Valide du 12 à 00h jusqu'au 13 à 00h UTC


112300Z 1200/1224 28014KT 9999 BKN026 SCT100
PROB40
TEMPO 1200/1208 3000 -DZBR BKN015 FEW020TCU



MET'MAP, la Météo Aéronautique d'un coup d'oeil ! - Copyright ORBIFLY Décembre 2007 - Disclaimer

ORBIFLY MET'MAP TEAM :

Programmation & Développement : Alexandra Zaïnal
Conception & Développement : Baudouin d'Aumeries
Co-Programmation & Développement : Marc-Olivier Méhu
Soutien technique & logistique : Manuel Goepfert

Contact : metmap@orbifly.com




SOURCES & CREDITS :

   NOAA